Aviation Digital Data Service (ADDS)

Output produced by METARs form (0547 UTC 16 February 2019)
found at http://www.aviationweather.gov/metar/data/
 
METAR text: ENAN 160520Z AUTO 19024G35KT 9999 SCT036/// BKN055/// OVC074/// 04/M00 Q0973
Conditions at: ENAN (ANDOYA/ANDENES(A, NO) observed 0520 UTC 16 February 2019
Temperature: 4.0°C (39°F)
Dewpoint: 0.0°C (32°F) [RH = 75%]
Pressure (altimeter): 28.73 inches Hg (973.0 mb)
Winds: from the S (190 degrees) at 28 MPH (24 knots; 12.3 m/s)
gusting to 40 MPH (35 knots; 18.0 m/s)
Visibility: 6 or more miles (10+ km)
Ceiling: 5500 feet AGL
Clouds: scattered clouds at 3600 feet AGL
broken clouds at 5500 feet AGL
overcast cloud deck at 7400 feet AGL
Weather: no significant weather observed at this time

METAR text: ENAN 160450Z AUTO 21026KT 9999 -RA FEW007/// OVC028/// 04/02 Q0974
Conditions at: ENAN (ANDOYA/ANDENES(A, NO) observed 0450 UTC 16 February 2019
Temperature: 4.0°C (39°F)
Dewpoint: 2.0°C (36°F) [RH = 87%]
Pressure (altimeter): 28.76 inches Hg (974.0 mb)
Winds: from the SSW (210 degrees) at 30 MPH (26 knots; 13.4 m/s)
Visibility: 6 or more miles (10+ km)
Ceiling: 2800 feet AGL
Clouds: few clouds at 700 feet AGL
overcast cloud deck at 2800 feet AGL
Weather: -RA  (light rain)

METAR text: ENAN 160420Z AUTO 15028KT 7000 -RA FEW007/// BKN017/// BKN023/// 03/02 Q0975
Conditions at: ENAN (ANDOYA/ANDENES(A, NO) observed 0420 UTC 16 February 2019
Temperature: 3.0°C (37°F)
Dewpoint: 2.0°C (36°F) [RH = 93%]
Pressure (altimeter): 28.79 inches Hg (975.0 mb)
Winds: from the SSE (150 degrees) at 32 MPH (28 knots; 14.4 m/s)
Visibility: 4 miles ( 7 km)
Ceiling: 1700 feet AGL
Clouds: few clouds at 700 feet AGL
broken clouds at 1700 feet AGL
broken clouds at 2300 feet AGL
Weather: -RA  (light rain)

METAR text: ENAN 160350Z AUTO 16024KT 9999 -RA SCT019/// BKN037/// OVC049/// 03/02 Q0977
Conditions at: ENAN (ANDOYA/ANDENES(A, NO) observed 0350 UTC 16 February 2019
Temperature: 3.0°C (37°F)
Dewpoint: 2.0°C (36°F) [RH = 93%]
Pressure (altimeter): 28.85 inches Hg (977.0 mb)
Winds: from the SSE (160 degrees) at 28 MPH (24 knots; 12.3 m/s)
Visibility: 6 or more miles (10+ km)
Ceiling: 3700 feet AGL
Clouds: scattered clouds at 1900 feet AGL
broken clouds at 3700 feet AGL
overcast cloud deck at 4900 feet AGL
Weather: -RA  (light rain)

METAR text: ENAN 160320Z AUTO 16022KT 9999 -DZ FEW026/// BKN037/// OVC047/// 03/02 Q0978
Conditions at: ENAN (ANDOYA/ANDENES(A, NO) observed 0320 UTC 16 February 2019
Temperature: 3.0°C (37°F)
Dewpoint: 2.0°C (36°F) [RH = 93%]
Pressure (altimeter): 28.88 inches Hg (978.0 mb)
Winds: from the SSE (160 degrees) at 25 MPH (22 knots; 11.3 m/s)
Visibility: 6 or more miles (10+ km)
Ceiling: 3700 feet AGL
Clouds: few clouds at 2600 feet AGL
broken clouds at 3700 feet AGL
overcast cloud deck at 4700 feet AGL
Weather: -DZ  (light drizzle)

METAR text: ENAN 160250Z AUTO 15017KT 8000 -RA FEW004/// SCT014/// BKN018/// 02/02 Q0980
Conditions at: ENAN (ANDOYA/ANDENES(A, NO) observed 0250 UTC 16 February 2019
Temperature: 2.0°C (36°F)
Dewpoint: 2.0°C (36°F) [RH = 100%]
Pressure (altimeter): 28.94 inches Hg (980.0 mb)
Winds: from the SSE (150 degrees) at 20 MPH (17 knots; 8.7 m/s)
Visibility: 5 miles ( 8 km)
Ceiling: 1800 feet AGL
Clouds: few clouds at 400 feet AGL
scattered clouds at 1400 feet AGL
broken clouds at 1800 feet AGL
Weather: -RA  (light rain)

METAR text: ENAN 160220Z AUTO 15020KT 4600 -RASN BKN011/// OVC019/// 02/01 Q0982
Conditions at: ENAN (ANDOYA/ANDENES(A, NO) observed 0220 UTC 16 February 2019
Temperature: 2.0°C (36°F)
Dewpoint: 1.0°C (34°F) [RH = 93%]
Pressure (altimeter): 29.00 inches Hg (982.0 mb)
Winds: from the SSE (150 degrees) at 23 MPH (20 knots; 10.3 m/s)
Visibility: 2.86 miles (4.60 km)
Ceiling: 1100 feet AGL
Clouds: broken clouds at 1100 feet AGL
overcast cloud deck at 1900 feet AGL
Weather: -RA -SN  (light rain, light snow)

METAR text: ENAN 160150Z AUTO 15019KT 4900 -SN FEW005/// SCT008/// BKN011/// 01/01 Q0983
Conditions at: ENAN (ANDOYA/ANDENES(A, NO) observed 0150 UTC 16 February 2019
Temperature: 1.0°C (34°F)
Dewpoint: 1.0°C (34°F) [RH = 100%]
Pressure (altimeter): 29.03 inches Hg (983.0 mb)
Winds: from the SSE (150 degrees) at 22 MPH (19 knots; 9.8 m/s)
Visibility: 3 miles ( 5 km)
Ceiling: 1100 feet AGL
Clouds: few clouds at 500 feet AGL
scattered clouds at 800 feet AGL
broken clouds at 1100 feet AGL
Weather: -SN  (light snow)

METAR text: ENAN 160120Z AUTO 15018KT 5000 -SN BKN004/// OVC014/// 01/00 Q0985
Conditions at: ENAN (ANDOYA/ANDENES(A, NO) observed 0120 UTC 16 February 2019
Temperature: 1.0°C (34°F)
Dewpoint: 0.0°C (32°F) [RH = 93%]
Pressure (altimeter): 29.08 inches Hg (985.0 mb)
Winds: from the SSE (150 degrees) at 21 MPH (18 knots; 9.3 m/s)
Visibility: 3 miles ( 5 km)
Ceiling: 400 feet AGL
Clouds: broken clouds at 400 feet AGL
overcast cloud deck at 1400 feet AGL
Weather: -SN  (light snow)

METAR text: ENAN 160050Z AUTO 15018KT 5000 -SN SCT003/// BKN005/// OVC012/// 01/00 Q0986
Conditions at: ENAN (ANDOYA/ANDENES(A, NO) observed 0050 UTC 16 February 2019
Temperature: 1.0°C (34°F)
Dewpoint: 0.0°C (32°F) [RH = 93%]
Pressure (altimeter): 29.11 inches Hg (986.0 mb)
Winds: from the SSE (150 degrees) at 21 MPH (18 knots; 9.3 m/s)
Visibility: 3 miles ( 5 km)
Ceiling: 500 feet AGL
Clouds: scattered clouds at 300 feet AGL
broken clouds at 500 feet AGL
overcast cloud deck at 1200 feet AGL
Weather: -SN  (light snow)

METAR text: ENAN 160020Z AUTO 14017KT 2500 -SN OVC002/// 01/00 Q0988
Conditions at: ENAN (ANDOYA/ANDENES(A, NO) observed 0020 UTC 16 February 2019
Temperature: 1.0°C (34°F)
Dewpoint: 0.0°C (32°F) [RH = 93%]
Pressure (altimeter): 29.17 inches Hg (988.0 mb)
Winds: from the SE (140 degrees) at 20 MPH (17 knots; 8.7 m/s)
Visibility: 1.55 miles (2.49 km)
Ceiling: 200 feet AGL
Clouds: overcast cloud deck at 200 feet AGL
Weather: -SN  (light snow)

METAR text: ENAN 152350Z AUTO 12019KT 1800 -SN OVC002/// 01/M00 Q0989
Conditions at: ENAN (ANDOYA/ANDENES(A, NO) observed 2350 UTC 15 February 2019
Temperature: 1.0°C (34°F)
Dewpoint: 0.0°C (32°F) [RH = 93%]
Pressure (altimeter): 29.20 inches Hg (989.0 mb)
Winds: from the ESE (120 degrees) at 22 MPH (19 knots; 9.8 m/s)
Visibility: 1.12 miles (1.80 km)
Ceiling: 200 feet AGL
Clouds: overcast cloud deck at 200 feet AGL
Weather: -SN  (light snow)

METAR text: ENAN 152320Z AUTO 12020KT 1800 R14/P2000N PL OVC002/// 00/M00 Q0990
Conditions at: ENAN (ANDOYA/ANDENES(A, NO) observed 2320 UTC 15 February 2019
Temperature: 0.0°C (32°F)
Dewpoint: 0.0°C (32°F) [RH = 100%]
Pressure (altimeter): 29.23 inches Hg (990.0 mb)
Winds: from the ESE (120 degrees) at 23 MPH (20 knots; 10.3 m/s)
Visibility: 1.12 miles (1.80 km)
Ceiling: 200 feet AGL
Clouds: overcast cloud deck at 200 feet AGL
Weather: PL  (moderate ice pellets)

METAR text: ENAN 152250Z 12020KT 1000 R14/P2000N SN VV002 00/M00 Q0993
Conditions at: ENAN (ANDOYA/ANDENES(A, NO) observed 2250 UTC 15 February 2019
Temperature: 0.0°C (32°F)
Dewpoint: 0.0°C (32°F) [RH = 100%]
Pressure (altimeter): 29.32 inches Hg (993.0 mb)
Winds: from the ESE (120 degrees) at 23 MPH (20 knots; 10.3 m/s)
Visibility: 0.62 miles (1.00 km)
Ceiling: indefinite ceiling with vertical visibility of 200 feet AGL
Clouds: obscured sky
Weather: SN  (moderate snow)

METAR text: ENAN 152220Z 12022KT 2000 R14/P2000N -SN VV002 00/M00 Q0994
Conditions at: ENAN (ANDOYA/ANDENES(A, NO) observed 2220 UTC 15 February 2019
Temperature: 0.0°C (32°F)
Dewpoint: 0.0°C (32°F) [RH = 100%]
Pressure (altimeter): 29.35 inches Hg (994.0 mb)
Winds: from the ESE (120 degrees) at 25 MPH (22 knots; 11.3 m/s)
Visibility: 1.24 miles (2.00 km)
Ceiling: indefinite ceiling with vertical visibility of 200 feet AGL
Clouds: obscured sky
Weather: -SN  (light snow)

METAR text: ENAN 152150Z 12021KT 1900 -SN VV002 00/M01 Q0995
Conditions at: ENAN (ANDOYA/ANDENES(A, NO) observed 2150 UTC 15 February 2019
Temperature: 0.0°C (32°F)
Dewpoint: -1.0°C (30°F) [RH = 93%]
Pressure (altimeter): 29.38 inches Hg (995.0 mb)
Winds: from the ESE (120 degrees) at 24 MPH (21 knots; 10.8 m/s)
Visibility: 1.18 miles (1.90 km)
Ceiling: indefinite ceiling with vertical visibility of 200 feet AGL
Clouds: obscured sky
Weather: -SN  (light snow)

METAR text: ENAN 152120Z 12019KT 1900 R14/P2000N -SN VV012 00/M01 Q0997
Conditions at: ENAN (ANDOYA/ANDENES(A, NO) observed 2120 UTC 15 February 2019
Temperature: 0.0°C (32°F)
Dewpoint: -1.0°C (30°F) [RH = 93%]
Pressure (altimeter): 29.44 inches Hg (997.0 mb)
Winds: from the ESE (120 degrees) at 22 MPH (19 knots; 9.8 m/s)
Visibility: 1.18 miles (1.90 km)
Ceiling: indefinite ceiling with vertical visibility of 1200 feet AGL
Clouds: obscured sky
Weather: -SN  (light snow)

METAR text: ENAN 152050Z 14014KT 5000 -SN BKN020 01/M02 Q0998
Conditions at: ENAN (ANDOYA/ANDENES(A, NO) observed 2050 UTC 15 February 2019
Temperature: 1.0°C (34°F)
Dewpoint: -2.0°C (28°F) [RH = 80%]
Pressure (altimeter): 29.47 inches Hg (998.0 mb)
Winds: from the SE (140 degrees) at 16 MPH (14 knots; 7.2 m/s)
Visibility: 3 miles ( 5 km)
Ceiling: 2000 feet AGL
Clouds: broken clouds at 2000 feet AGL
Weather: -SN  (light snow)

METAR text: ENAN 152020Z 15011KT 9000 DZ BKN030 01/M02 Q0999
Conditions at: ENAN (ANDOYA/ANDENES(A, NO) observed 2020 UTC 15 February 2019
Temperature: 1.0°C (34°F)
Dewpoint: -2.0°C (28°F) [RH = 80%]
Pressure (altimeter): 29.50 inches Hg (999.0 mb)
Winds: from the SSE (150 degrees) at 13 MPH (11 knots; 5.7 m/s)
Visibility: 6 miles ( 9 km)
Ceiling: 3000 feet AGL
Clouds: broken clouds at 3000 feet AGL
Weather: DZ  (moderate drizzle)

METAR text: ENAN 151950Z 14011KT 9999 -DZ BKN036 01/M02 Q1000
Conditions at: ENAN (ANDOYA/ANDENES(A, NO) observed 1950 UTC 15 February 2019
Temperature: 1.0°C (34°F)
Dewpoint: -2.0°C (28°F) [RH = 80%]
Pressure (altimeter): 29.53 inches Hg (1000.0 mb)
Winds: from the SE (140 degrees) at 13 MPH (11 knots; 5.7 m/s)
Visibility: 6 or more miles (10+ km)
Ceiling: 3600 feet AGL
Clouds: broken clouds at 3600 feet AGL
Weather: -DZ  (light drizzle)

METAR text: ENAN 151920Z 12011KT 9999 FEW020 SCT035 BKN046 01/M03 Q1001
Conditions at: ENAN (ANDOYA/ANDENES(A, NO) observed 1920 UTC 15 February 2019
Temperature: 1.0°C (34°F)
Dewpoint: -3.0°C (27°F) [RH = 75%]
Pressure (altimeter): 29.56 inches Hg (1001.0 mb)
Winds: from the ESE (120 degrees) at 13 MPH (11 knots; 5.7 m/s)
Visibility: 6 or more miles (10+ km)
Ceiling: 4600 feet AGL
Clouds: few clouds at 2000 feet AGL
scattered clouds at 3500 feet AGL
broken clouds at 4600 feet AGL
Weather: no significant weather observed at this time

METAR text: ENAN 151850Z 11011KT 9999 SCT033 BKN045 01/M03 Q1002
Conditions at: ENAN (ANDOYA/ANDENES(A, NO) observed 1850 UTC 15 February 2019
Temperature: 1.0°C (34°F)
Dewpoint: -3.0°C (27°F) [RH = 75%]
Pressure (altimeter): 29.59 inches Hg (1002.0 mb)
Winds: from the ESE (110 degrees) at 13 MPH (11 knots; 5.7 m/s)
Visibility: 6 or more miles (10+ km)
Ceiling: 4500 feet AGL
Clouds: scattered clouds at 3300 feet AGL
broken clouds at 4500 feet AGL
Weather: no significant weather observed at this time

METAR text: ENAN 151820Z 11010KT 9999 SCT031 BKN041 01/M04 Q1002
Conditions at: ENAN (ANDOYA/ANDENES(A, NO) observed 1820 UTC 15 February 2019
Temperature: 1.0°C (34°F)
Dewpoint: -4.0°C (25°F) [RH = 69%]
Pressure (altimeter): 29.59 inches Hg (1002.0 mb)
Winds: from the ESE (110 degrees) at 12 MPH (10 knots; 5.1 m/s)
Visibility: 6 or more miles (10+ km)
Ceiling: 4100 feet AGL
Clouds: scattered clouds at 3100 feet AGL
broken clouds at 4100 feet AGL
Weather: no significant weather observed at this time

METAR text: ENAN 151750Z 10009KT 9999 FEW032 BKN045 01/M05 Q1003
Conditions at: ENAN (ANDOYA/ANDENES(A, NO) observed 1750 UTC 15 February 2019
Temperature: 1.0°C (34°F)
Dewpoint: -5.0°C (23°F) [RH = 64%]
Pressure (altimeter): 29.62 inches Hg (1003.0 mb)
Winds: from the E (100 degrees) at 10 MPH (9 knots; 4.6 m/s)
Visibility: 6 or more miles (10+ km)
Ceiling: 4500 feet AGL
Clouds: few clouds at 3200 feet AGL
broken clouds at 4500 feet AGL
Weather: no significant weather observed at this time

METAR text: ENAN 151720Z 09008KT 9999 BKN049 01/M05 Q1003
Conditions at: ENAN (ANDOYA/ANDENES(A, NO) observed 1720 UTC 15 February 2019
Temperature: 1.0°C (34°F)
Dewpoint: -5.0°C (23°F) [RH = 64%]
Pressure (altimeter): 29.62 inches Hg (1003.0 mb)
Winds: from the E (90 degrees) at 9 MPH (8 knots; 4.1 m/s)
Visibility: 6 or more miles (10+ km)
Ceiling: 4900 feet AGL
Clouds: broken clouds at 4900 feet AGL
Weather: no significant weather observed at this time

METAR text: ENAN 151650Z 08007KT 9999 BKN036 01/M05 Q1004
Conditions at: ENAN (ANDOYA/ANDENES(A, NO) observed 1650 UTC 15 February 2019
Temperature: 1.0°C (34°F)
Dewpoint: -5.0°C (23°F) [RH = 64%]
Pressure (altimeter): 29.65 inches Hg (1004.0 mb)
Winds: from the E (80 degrees) at 8 MPH (7 knots; 3.6 m/s)
Visibility: 6 or more miles (10+ km)
Ceiling: 3600 feet AGL
Clouds: broken clouds at 3600 feet AGL
Weather: no significant weather observed at this time

METAR text: ENAN 151620Z 06007KT 9999 BKN036 01/M04 Q1004
Conditions at: ENAN (ANDOYA/ANDENES(A, NO) observed 1620 UTC 15 February 2019
Temperature: 1.0°C (34°F)
Dewpoint: -4.0°C (25°F) [RH = 69%]
Pressure (altimeter): 29.65 inches Hg (1004.0 mb)
Winds: from the ENE (60 degrees) at 8 MPH (7 knots; 3.6 m/s)
Visibility: 6 or more miles (10+ km)
Ceiling: 3600 feet AGL
Clouds: broken clouds at 3600 feet AGL
Weather: no significant weather observed at this time

METAR text: ENAN 151550Z 05006KT 9999 BKN036 01/M04 Q1005
Conditions at: ENAN (ANDOYA/ANDENES(A, NO) observed 1550 UTC 15 February 2019
Temperature: 1.0°C (34°F)
Dewpoint: -4.0°C (25°F) [RH = 69%]
Pressure (altimeter): 29.68 inches Hg (1005.0 mb)
Winds: from the NE (50 degrees) at 7 MPH (6 knots; 3.1 m/s)
Visibility: 6 or more miles (10+ km)
Ceiling: 3600 feet AGL
Clouds: broken clouds at 3600 feet AGL
Weather: no significant weather observed at this time

METAR text: ENAN 151520Z 02005KT 9999 BKN037 01/M04 Q1005
Conditions at: ENAN (ANDOYA/ANDENES(A, NO) observed 1520 UTC 15 February 2019
Temperature: 1.0°C (34°F)
Dewpoint: -4.0°C (25°F) [RH = 69%]
Pressure (altimeter): 29.68 inches Hg (1005.0 mb)
Winds: from the NNE (20 degrees) at 6 MPH (5 knots; 2.6 m/s)
Visibility: 6 or more miles (10+ km)
Ceiling: 3700 feet AGL
Clouds: broken clouds at 3700 feet AGL
Weather: no significant weather observed at this time

METAR text: ENAN 151450Z 36004KT 9999 BKN039 01/M04 Q1005
Conditions at: ENAN (ANDOYA/ANDENES(A, NO) observed 1450 UTC 15 February 2019
Temperature: 1.0°C (34°F)
Dewpoint: -4.0°C (25°F) [RH = 69%]
Pressure (altimeter): 29.68 inches Hg (1005.0 mb)
Winds: from the N (360 degrees) at 5 MPH (4 knots; 2.1 m/s)
Visibility: 6 or more miles (10+ km)
Ceiling: 3900 feet AGL
Clouds: broken clouds at 3900 feet AGL
Weather: no significant weather observed at this time

METAR text: ENAN 151420Z 35005KT 9999 BKN043 01/M04 Q1005
Conditions at: ENAN (ANDOYA/ANDENES(A, NO) observed 1420 UTC 15 February 2019
Temperature: 1.0°C (34°F)
Dewpoint: -4.0°C (25°F) [RH = 69%]
Pressure (altimeter): 29.68 inches Hg (1005.0 mb)
Winds: from the N (350 degrees) at 6 MPH (5 knots; 2.6 m/s)
Visibility: 6 or more miles (10+ km)
Ceiling: 4300 feet AGL
Clouds: broken clouds at 4300 feet AGL
Weather: no significant weather observed at this time

METAR text: ENAN 151350Z 36004KT 330V030 9999 SCT040 OVC053 01/M04 Q1005
Conditions at: ENAN (ANDOYA/ANDENES(A, NO) observed 1350 UTC 15 February 2019
Temperature: 1.0°C (34°F)
Dewpoint: -4.0°C (25°F) [RH = 69%]
Pressure (altimeter): 29.68 inches Hg (1005.0 mb)
Winds: from the N (360 degrees) at 5 MPH (4 knots; 2.1 m/s)
Visibility: 6 or more miles (10+ km)
Ceiling: 5300 feet AGL
Clouds: scattered clouds at 4000 feet AGL
overcast cloud deck at 5300 feet AGL
Weather: no significant weather observed at this time

METAR text: ENAN 151320Z 34003KT 9999 BKN039 OVC048 02/M04 Q1005
Conditions at: ENAN (ANDOYA/ANDENES(A, NO) observed 1320 UTC 15 February 2019
Temperature: 2.0°C (36°F)
Dewpoint: -4.0°C (25°F) [RH = 64%]
Pressure (altimeter): 29.68 inches Hg (1005.0 mb)
Winds: from the NNW (340 degrees) at 3 MPH (3 knots; 1.5 m/s)
Visibility: 6 or more miles (10+ km)
Ceiling: 3900 feet AGL
Clouds: broken clouds at 3900 feet AGL
overcast cloud deck at 4800 feet AGL
Weather: no significant weather observed at this time

METAR text: ENAN 151250Z 34005KT 9999 BKN038 OVC045 02/M04 Q1005
Conditions at: ENAN (ANDOYA/ANDENES(A, NO) observed 1250 UTC 15 February 2019
Temperature: 2.0°C (36°F)
Dewpoint: -4.0°C (25°F) [RH = 64%]
Pressure (altimeter): 29.68 inches Hg (1005.0 mb)
Winds: from the NNW (340 degrees) at 6 MPH (5 knots; 2.6 m/s)
Visibility: 6 or more miles (10+ km)
Ceiling: 3800 feet AGL
Clouds: broken clouds at 3800 feet AGL
overcast cloud deck at 4500 feet AGL
Weather: no significant weather observed at this time

METAR text: ENAN 151220Z 35006KT 9999 OVC039 02/M04 Q1005
Conditions at: ENAN (ANDOYA/ANDENES(A, NO) observed 1220 UTC 15 February 2019
Temperature: 2.0°C (36°F)
Dewpoint: -4.0°C (25°F) [RH = 64%]
Pressure (altimeter): 29.68 inches Hg (1005.0 mb)
Winds: from the N (350 degrees) at 7 MPH (6 knots; 3.1 m/s)
Visibility: 6 or more miles (10+ km)
Ceiling: 3900 feet AGL
Clouds: overcast cloud deck at 3900 feet AGL
Weather: no significant weather observed at this time

METAR text: ENAN 151150Z 34006KT 9999 OVC036 02/M03 Q1005
Conditions at: ENAN (ANDOYA/ANDENES(A, NO) observed 1150 UTC 15 February 2019
Temperature: 2.0°C (36°F)
Dewpoint: -3.0°C (27°F) [RH = 69%]
Pressure (altimeter): 29.68 inches Hg (1005.0 mb)
Winds: from the NNW (340 degrees) at 7 MPH (6 knots; 3.1 m/s)
Visibility: 6 or more miles (10+ km)
Ceiling: 3600 feet AGL
Clouds: overcast cloud deck at 3600 feet AGL
Weather: no significant weather observed at this time

METAR text: ENAN 151120Z 35006KT 330V030 9999 BKN034 BKN048 OVC059 02/M03 Q1004
Conditions at: ENAN (ANDOYA/ANDENES(A, NO) observed 1120 UTC 15 February 2019
Temperature: 2.0°C (36°F)
Dewpoint: -3.0°C (27°F) [RH = 69%]
Pressure (altimeter): 29.65 inches Hg (1004.0 mb)
Winds: from the N (350 degrees) at 7 MPH (6 knots; 3.1 m/s)
Visibility: 6 or more miles (10+ km)
Ceiling: 3400 feet AGL
Clouds: broken clouds at 3400 feet AGL
broken clouds at 4800 feet AGL
overcast cloud deck at 5900 feet AGL
Weather: no significant weather observed at this time

METAR text: ENAN 151050Z 35008KT 9999 SCT048 BKN062 02/M03 Q1004
Conditions at: ENAN (ANDOYA/ANDENES(A, NO) observed 1050 UTC 15 February 2019
Temperature: 2.0°C (36°F)
Dewpoint: -3.0°C (27°F) [RH = 69%]
Pressure (altimeter): 29.65 inches Hg (1004.0 mb)
Winds: from the N (350 degrees) at 9 MPH (8 knots; 4.1 m/s)
Visibility: 6 or more miles (10+ km)
Ceiling: 6200 feet AGL
Clouds: scattered clouds at 4800 feet AGL
broken clouds at 6200 feet AGL
Weather: no significant weather observed at this time

METAR text: ENAN 151020Z 36011KT 9999 FEW028 BKN039 OVC055 02/M03 Q1004
Conditions at: ENAN (ANDOYA/ANDENES(A, NO) observed 1020 UTC 15 February 2019
Temperature: 2.0°C (36°F)
Dewpoint: -3.0°C (27°F) [RH = 69%]
Pressure (altimeter): 29.65 inches Hg (1004.0 mb)
Winds: from the N (360 degrees) at 13 MPH (11 knots; 5.7 m/s)
Visibility: 6 or more miles (10+ km)
Ceiling: 3900 feet AGL
Clouds: few clouds at 2800 feet AGL
broken clouds at 3900 feet AGL
overcast cloud deck at 5500 feet AGL
Weather: no significant weather observed at this time

METAR text: ENAN 150950Z 35012KT 9999 FEW024 BKN034 OVC066 02/M03 Q1003
Conditions at: ENAN (ANDOYA/ANDENES(A, NO) observed 0950 UTC 15 February 2019
Temperature: 2.0°C (36°F)
Dewpoint: -3.0°C (27°F) [RH = 69%]
Pressure (altimeter): 29.62 inches Hg (1003.0 mb)
Winds: from the N (350 degrees) at 14 MPH (12 knots; 6.2 m/s)
Visibility: 6 or more miles (10+ km)
Ceiling: 3400 feet AGL
Clouds: few clouds at 2400 feet AGL
broken clouds at 3400 feet AGL
overcast cloud deck at 6600 feet AGL
Weather: no significant weather observed at this time

METAR text: ENAN 150920Z 35013KT 9999 FEW019 BKN027 02/M02 Q1003
Conditions at: ENAN (ANDOYA/ANDENES(A, NO) observed 0920 UTC 15 February 2019
Temperature: 2.0°C (36°F)
Dewpoint: -2.0°C (28°F) [RH = 75%]
Pressure (altimeter): 29.62 inches Hg (1003.0 mb)
Winds: from the N (350 degrees) at 15 MPH (13 knots; 6.7 m/s)
Visibility: 6 or more miles (10+ km)
Ceiling: 2700 feet AGL
Clouds: few clouds at 1900 feet AGL
broken clouds at 2700 feet AGL
Weather: no significant weather observed at this time

METAR text: ENAN 150850Z 34016KT 9999 FEW020 BKN062 02/M01 Q1002
Conditions at: ENAN (ANDOYA/ANDENES(A, NO) observed 0850 UTC 15 February 2019
Temperature: 2.0°C (36°F)
Dewpoint: -1.0°C (30°F) [RH = 80%]
Pressure (altimeter): 29.59 inches Hg (1002.0 mb)
Winds: from the NNW (340 degrees) at 18 MPH (16 knots; 8.2 m/s)
Visibility: 6 or more miles (10+ km)
Ceiling: 6200 feet AGL
Clouds: few clouds at 2000 feet AGL
broken clouds at 6200 feet AGL
Weather: no significant weather observed at this time

METAR text: ENAN 150820Z 35014KT 9999 SCT020 BKN038 02/M01 Q1001
Conditions at: ENAN (ANDOYA/ANDENES(A, NO) observed 0820 UTC 15 February 2019
Temperature: 2.0°C (36°F)
Dewpoint: -1.0°C (30°F) [RH = 80%]
Pressure (altimeter): 29.56 inches Hg (1001.0 mb)
Winds: from the N (350 degrees) at 16 MPH (14 knots; 7.2 m/s)
Visibility: 6 or more miles (10+ km)
Ceiling: 3800 feet AGL
Clouds: scattered clouds at 2000 feet AGL
broken clouds at 3800 feet AGL
Weather: no significant weather observed at this time

METAR text: ENAN 150750Z 33014KT 9999 VCSH FEW002 SCT019 BKN045 02/M01 Q1001
Conditions at: ENAN (ANDOYA/ANDENES(A, NO) observed 0750 UTC 15 February 2019
Temperature: 2.0°C (36°F)
Dewpoint: -1.0°C (30°F) [RH = 80%]
Pressure (altimeter): 29.56 inches Hg (1001.0 mb)
Winds: from the NNW (330 degrees) at 16 MPH (14 knots; 7.2 m/s)
Visibility: 6 or more miles (10+ km)
Ceiling: 4500 feet AGL
Clouds: few clouds at 200 feet AGL
scattered clouds at 1900 feet AGL
broken clouds at 4500 feet AGL
Weather: VCSH  (showers in vicinity)

METAR text: ENAN 150720Z 32019G30KT 9999 -SHRASN FEW003 BKN020 02/M00 Q1000
Conditions at: ENAN (ANDOYA/ANDENES(A, NO) observed 0720 UTC 15 February 2019
Temperature: 2.0°C (36°F)
Dewpoint: 0.0°C (32°F) [RH = 87%]
Pressure (altimeter): 29.53 inches Hg (1000.0 mb)
Winds: from the NW (320 degrees) at 22 MPH (19 knots; 9.8 m/s)
gusting to 34 MPH (30 knots; 15.4 m/s)
Visibility: 6 or more miles (10+ km)
Ceiling: 2000 feet AGL
Clouds: few clouds at 300 feet AGL
broken clouds at 2000 feet AGL
Weather: -SHRA -SHSN  (light rain showers, light snow showers)

METAR text: ENAN 150650Z 34017KT 9999 FEW006 SCT014 BKN057 02/00 Q0999
Conditions at: ENAN (ANDOYA/ANDENES(A, NO) observed 0650 UTC 15 February 2019
Temperature: 2.0°C (36°F)
Dewpoint: 0.0°C (32°F) [RH = 87%]
Pressure (altimeter): 29.50 inches Hg (999.0 mb)
Winds: from the NNW (340 degrees) at 20 MPH (17 knots; 8.7 m/s)
Visibility: 6 or more miles (10+ km)
Ceiling: 5700 feet AGL
Clouds: few clouds at 600 feet AGL
scattered clouds at 1400 feet AGL
broken clouds at 5700 feet AGL
Weather: no significant weather observed at this time

METAR text: ENAN 150620Z 32020KT 9999 SCT011 BKN019 03/01 Q0998
Conditions at: ENAN (ANDOYA/ANDENES(A, NO) observed 0620 UTC 15 February 2019
Temperature: 3.0°C (37°F)
Dewpoint: 1.0°C (34°F) [RH = 87%]
Pressure (altimeter): 29.47 inches Hg (998.0 mb)
Winds: from the NW (320 degrees) at 23 MPH (20 knots; 10.3 m/s)
Visibility: 6 or more miles (10+ km)
Ceiling: 1900 feet AGL
Clouds: scattered clouds at 1100 feet AGL
broken clouds at 1900 feet AGL
Weather: no significant weather observed at this time

METAR text: ENAN 150550Z 31019KT 9999 FEW010 SCT018 BKN029 03/01 Q0997
Conditions at: ENAN (ANDOYA/ANDENES(A, NO) observed 0550 UTC 15 February 2019
Temperature: 3.0°C (37°F)
Dewpoint: 1.0°C (34°F) [RH = 87%]
Pressure (altimeter): 29.44 inches Hg (997.0 mb)
Winds: from the NW (310 degrees) at 22 MPH (19 knots; 9.8 m/s)
Visibility: 6 or more miles (10+ km)
Ceiling: 2900 feet AGL
Clouds: few clouds at 1000 feet AGL
scattered clouds at 1800 feet AGL
broken clouds at 2900 feet AGL
Weather: no significant weather observed at this time

METAR text: ENAN 150520Z 31018KT 9999 SCT016 BKN025 04/01 Q0996
Conditions at: ENAN (ANDOYA/ANDENES(A, NO) observed 0520 UTC 15 February 2019
Temperature: 4.0°C (39°F)
Dewpoint: 1.0°C (34°F) [RH = 81%]
Pressure (altimeter): 29.41 inches Hg (996.0 mb)
Winds: from the NW (310 degrees) at 21 MPH (18 knots; 9.3 m/s)
Visibility: 6 or more miles (10+ km)
Ceiling: 2500 feet AGL
Clouds: scattered clouds at 1600 feet AGL
broken clouds at 2500 feet AGL
Weather: no significant weather observed at this time

METAR text: ENAN 150450Z 30016KT 9999 SCT017 BKN029 04/02 Q0996
Conditions at: ENAN (ANDOYA/ANDENES(A, NO) observed 0450 UTC 15 February 2019
Temperature: 4.0°C (39°F)
Dewpoint: 2.0°C (36°F) [RH = 87%]
Pressure (altimeter): 29.41 inches Hg (996.0 mb)
Winds: from the WNW (300 degrees) at 18 MPH (16 knots; 8.2 m/s)
Visibility: 6 or more miles (10+ km)
Ceiling: 2900 feet AGL
Clouds: scattered clouds at 1700 feet AGL
broken clouds at 2900 feet AGL
Weather: no significant weather observed at this time

METAR text: ENAN 150420Z 32014KT 9999 BKN018 04/01 Q0995
Conditions at: ENAN (ANDOYA/ANDENES(A, NO) observed 0420 UTC 15 February 2019
Temperature: 4.0°C (39°F)
Dewpoint: 1.0°C (34°F) [RH = 81%]
Pressure (altimeter): 29.38 inches Hg (995.0 mb)
Winds: from the NW (320 degrees) at 16 MPH (14 knots; 7.2 m/s)
Visibility: 6 or more miles (10+ km)
Ceiling: 1800 feet AGL
Clouds: broken clouds at 1800 feet AGL
Weather: no significant weather observed at this time

METAR text: ENAN 150350Z 30016KT 9999 BKN033 04/00 Q0994
Conditions at: ENAN (ANDOYA/ANDENES(A, NO) observed 0350 UTC 15 February 2019
Temperature: 4.0°C (39°F)
Dewpoint: 0.0°C (32°F) [RH = 75%]
Pressure (altimeter): 29.35 inches Hg (994.0 mb)
Winds: from the WNW (300 degrees) at 18 MPH (16 knots; 8.2 m/s)
Visibility: 6 or more miles (10+ km)
Ceiling: 3300 feet AGL
Clouds: broken clouds at 3300 feet AGL
Weather: no significant weather observed at this time

METAR text: ENAN 150320Z 30016KT 9999 FEW016 SCT026 BKN043 04/01 Q0994
Conditions at: ENAN (ANDOYA/ANDENES(A, NO) observed 0320 UTC 15 February 2019
Temperature: 4.0°C (39°F)
Dewpoint: 1.0°C (34°F) [RH = 81%]
Pressure (altimeter): 29.35 inches Hg (994.0 mb)
Winds: from the WNW (300 degrees) at 18 MPH (16 knots; 8.2 m/s)
Visibility: 6 or more miles (10+ km)
Ceiling: 4300 feet AGL
Clouds: few clouds at 1600 feet AGL
scattered clouds at 2600 feet AGL
broken clouds at 4300 feet AGL
Weather: no significant weather observed at this time

METAR text: ENAN 150250Z 32019KT 6000 -RA SCT021 BKN049 04/01 Q0993
Conditions at: ENAN (ANDOYA/ANDENES(A, NO) observed 0250 UTC 15 February 2019
Temperature: 4.0°C (39°F)
Dewpoint: 1.0°C (34°F) [RH = 81%]
Pressure (altimeter): 29.32 inches Hg (993.0 mb)
Winds: from the NW (320 degrees) at 22 MPH (19 knots; 9.8 m/s)
Visibility: 4 miles ( 6 km)
Ceiling: 4900 feet AGL
Clouds: scattered clouds at 2100 feet AGL
broken clouds at 4900 feet AGL
Weather: -RA  (light rain)

METAR text: ENAN 150220Z 32018KT 9999 FEW015 SCT020 BKN028 04/01 Q0992
Conditions at: ENAN (ANDOYA/ANDENES(A, NO) observed 0220 UTC 15 February 2019
Temperature: 4.0°C (39°F)
Dewpoint: 1.0°C (34°F) [RH = 81%]
Pressure (altimeter): 29.29 inches Hg (992.0 mb)
Winds: from the NW (320 degrees) at 21 MPH (18 knots; 9.3 m/s)
Visibility: 6 or more miles (10+ km)
Ceiling: 2800 feet AGL
Clouds: few clouds at 1500 feet AGL
scattered clouds at 2000 feet AGL
broken clouds at 2800 feet AGL
Weather: no significant weather observed at this time

METAR text: ENAN 150150Z 33022KT 7000 SCT005 BKN011 04/02 Q0990
Conditions at: ENAN (ANDOYA/ANDENES(A, NO) observed 0150 UTC 15 February 2019
Temperature: 4.0°C (39°F)
Dewpoint: 2.0°C (36°F) [RH = 87%]
Pressure (altimeter): 29.23 inches Hg (990.0 mb)
Winds: from the NNW (330 degrees) at 25 MPH (22 knots; 11.3 m/s)
Visibility: 4 miles ( 7 km)
Ceiling: 1100 feet AGL
Clouds: scattered clouds at 500 feet AGL
broken clouds at 1100 feet AGL
Weather: no significant weather observed at this time

METAR text: ENAN 150120Z 30019KT 9999 FEW015 SCT026 BKN049 04/02 Q0988
Conditions at: ENAN (ANDOYA/ANDENES(A, NO) observed 0120 UTC 15 February 2019
Temperature: 4.0°C (39°F)
Dewpoint: 2.0°C (36°F) [RH = 87%]
Pressure (altimeter): 29.17 inches Hg (988.0 mb)
Winds: from the WNW (300 degrees) at 22 MPH (19 knots; 9.8 m/s)
Visibility: 6 or more miles (10+ km)
Ceiling: 4900 feet AGL
Clouds: few clouds at 1500 feet AGL
scattered clouds at 2600 feet AGL
broken clouds at 4900 feet AGL
Weather: no significant weather observed at this time

METAR text: ENAN 150050Z 28020G31KT 9999 FEW005 BKN013 04/02 Q0986
Conditions at: ENAN (ANDOYA/ANDENES(A, NO) observed 0050 UTC 15 February 2019
Temperature: 4.0°C (39°F)
Dewpoint: 2.0°C (36°F) [RH = 87%]
Pressure (altimeter): 29.11 inches Hg (986.0 mb)
Winds: from the W (280 degrees) at 23 MPH (20 knots; 10.3 m/s)
gusting to 36 MPH (31 knots; 15.9 m/s)
Visibility: 6 or more miles (10+ km)
Ceiling: 1300 feet AGL
Clouds: few clouds at 500 feet AGL
broken clouds at 1300 feet AGL
Weather: no significant weather observed at this time

METAR text: ENAN 150020Z 26026G38KT 5000 -SHRA FEW004 SCT011 BKN014 05/02 Q0985
Conditions at: ENAN (ANDOYA/ANDENES(A, NO) observed 0020 UTC 15 February 2019
Temperature: 5.0°C (41°F)
Dewpoint: 2.0°C (36°F) [RH = 81%]
Pressure (altimeter): 29.08 inches Hg (985.0 mb)
Winds: from the W (260 degrees) at 30 MPH (26 knots; 13.4 m/s)
gusting to 44 MPH (38 knots; 19.5 m/s)
Visibility: 3 miles ( 5 km)
Ceiling: 1400 feet AGL
Clouds: few clouds at 400 feet AGL
scattered clouds at 1100 feet AGL
broken clouds at 1400 feet AGL
Weather: -SHRA  (light rain showers)

METAR text: ENAN 142350Z 25022G37KT 230V290 9999 BKN021 05/01 Q0984
Conditions at: ENAN (ANDOYA/ANDENES(A, NO) observed 2350 UTC 14 February 2019
Temperature: 5.0°C (41°F)
Dewpoint: 1.0°C (34°F) [RH = 75%]
Pressure (altimeter): 29.06 inches Hg (984.0 mb)
Winds: from the WSW (250 degrees) at 25 MPH (22 knots; 11.3 m/s)
gusting to 43 MPH (37 knots; 19.0 m/s)
Visibility: 6 or more miles (10+ km)
Ceiling: 2100 feet AGL
Clouds: broken clouds at 2100 feet AGL
Weather: no significant weather observed at this time

METAR text: ENAN 142320Z 26027G42KT 7000 FEW003 BKN017 05/02 Q0984
Conditions at: ENAN (ANDOYA/ANDENES(A, NO) observed 2320 UTC 14 February 2019
Temperature: 5.0°C (41°F)
Dewpoint: 2.0°C (36°F) [RH = 81%]
Pressure (altimeter): 29.06 inches Hg (984.0 mb)
Winds: from the W (260 degrees) at 31 MPH (27 knots; 13.9 m/s)
gusting to 48 MPH (42 knots; 21.6 m/s)
Visibility: 4 miles ( 7 km)
Ceiling: 1700 feet AGL
Clouds: few clouds at 300 feet AGL
broken clouds at 1700 feet AGL
Weather: no significant weather observed at this time

METAR text: ENAN 142250Z 25030G51KT 210V290 9999 FEW004 BKN015 04/01 Q0984
Conditions at: ENAN (ANDOYA/ANDENES(A, NO) observed 2250 UTC 14 February 2019
Temperature: 4.0°C (39°F)
Dewpoint: 1.0°C (34°F) [RH = 81%]
Pressure (altimeter): 29.06 inches Hg (984.0 mb)
Winds: from the WSW (250 degrees) at 34 MPH (30 knots; 15.4 m/s)
gusting to 59 MPH (51 knots; 26.2 m/s)
Visibility: 6 or more miles (10+ km)
Ceiling: 1500 feet AGL
Clouds: few clouds at 400 feet AGL
broken clouds at 1500 feet AGL
Weather: no significant weather observed at this time

METAR text: ENAN 142220Z 25025G39KT 220V280 7000 FEW005 BKN014 05/02 Q0984
Conditions at: ENAN (ANDOYA/ANDENES(A, NO) observed 2220 UTC 14 February 2019
Temperature: 5.0°C (41°F)
Dewpoint: 2.0°C (36°F) [RH = 81%]
Pressure (altimeter): 29.06 inches Hg (984.0 mb)
Winds: from the WSW (250 degrees) at 29 MPH (25 knots; 12.9 m/s)
gusting to 45 MPH (39 knots; 20.1 m/s)
Visibility: 4 miles ( 7 km)
Ceiling: 1400 feet AGL
Clouds: few clouds at 500 feet AGL
broken clouds at 1400 feet AGL
Weather: no significant weather observed at this time

METAR text: ENAN 142150Z 26026G54KT 230V290 8000 DZ FEW005 BKN012 05/02 Q0983
Conditions at: ENAN (ANDOYA/ANDENES(A, NO) observed 2150 UTC 14 February 2019
Temperature: 5.0°C (41°F)
Dewpoint: 2.0°C (36°F) [RH = 81%]
Pressure (altimeter): 29.03 inches Hg (983.0 mb)
Winds: from the W (260 degrees) at 30 MPH (26 knots; 13.4 m/s)
gusting to 62 MPH (54 knots; 27.8 m/s)
Visibility: 5 miles ( 8 km)
Ceiling: 1200 feet AGL
Clouds: few clouds at 500 feet AGL
broken clouds at 1200 feet AGL
Weather: DZ  (moderate drizzle)

METAR text: ENAN 142120Z 25027G41KT 220V280 5000 SCT005 BKN012 05/02 Q0983 RERA
Conditions at: ENAN (ANDOYA/ANDENES(A, NO) observed 2120 UTC 14 February 2019
Temperature: 5.0°C (41°F)
Dewpoint: 2.0°C (36°F) [RH = 81%]
Pressure (altimeter): 29.03 inches Hg (983.0 mb)
Winds: from the WSW (250 degrees) at 31 MPH (27 knots; 13.9 m/s)
gusting to 47 MPH (41 knots; 21.1 m/s)
Visibility: 3 miles ( 5 km)
Ceiling: 1200 feet AGL
Clouds: scattered clouds at 500 feet AGL
broken clouds at 1200 feet AGL
Weather: no significant weather observed at this time

METAR text: ENAN 142050Z 26031G51KT 5000 DZ SCT003 BKN013 05/03 Q0983
Conditions at: ENAN (ANDOYA/ANDENES(A, NO) observed 2050 UTC 14 February 2019
Temperature: 5.0°C (41°F)
Dewpoint: 3.0°C (37°F) [RH = 87%]
Pressure (altimeter): 29.03 inches Hg (983.0 mb)
Winds: from the W (260 degrees) at 36 MPH (31 knots; 15.9 m/s)
gusting to 59 MPH (51 knots; 26.2 m/s)
Visibility: 3 miles ( 5 km)
Ceiling: 1300 feet AGL
Clouds: scattered clouds at 300 feet AGL
broken clouds at 1300 feet AGL
Weather: DZ  (moderate drizzle)

METAR text: ENAN 142020Z 25027G50KT 9999 VCSH FEW003 SCT006 BKN010 05/02 Q0983
Conditions at: ENAN (ANDOYA/ANDENES(A, NO) observed 2020 UTC 14 February 2019
Temperature: 5.0°C (41°F)
Dewpoint: 2.0°C (36°F) [RH = 81%]
Pressure (altimeter): 29.03 inches Hg (983.0 mb)
Winds: from the WSW (250 degrees) at 31 MPH (27 knots; 13.9 m/s)
gusting to 57 MPH (50 knots; 25.7 m/s)
Visibility: 6 or more miles (10+ km)
Ceiling: 1000 feet AGL
Clouds: few clouds at 300 feet AGL
scattered clouds at 600 feet AGL
broken clouds at 1000 feet AGL
Weather: VCSH  (showers in vicinity)

METAR text: ENAN 141950Z 25030G40KT 9999 BKN009 04/02 Q0982
Conditions at: ENAN (ANDOYA/ANDENES(A, NO) observed 1950 UTC 14 February 2019
Temperature: 4.0°C (39°F)
Dewpoint: 2.0°C (36°F) [RH = 87%]
Pressure (altimeter): 29.00 inches Hg (982.0 mb)
Winds: from the WSW (250 degrees) at 34 MPH (30 knots; 15.4 m/s)
gusting to 46 MPH (40 knots; 20.6 m/s)
Visibility: 6 or more miles (10+ km)
Ceiling: 900 feet AGL
Clouds: broken clouds at 900 feet AGL
Weather: no significant weather observed at this time

METAR text: ENAN 141920Z 25026G36KT 9999 FEW002 BKN012 OVC021 05/02 Q0982
Conditions at: ENAN (ANDOYA/ANDENES(A, NO) observed 1920 UTC 14 February 2019
Temperature: 5.0°C (41°F)
Dewpoint: 2.0°C (36°F) [RH = 81%]
Pressure (altimeter): 29.00 inches Hg (982.0 mb)
Winds: from the WSW (250 degrees) at 30 MPH (26 knots; 13.4 m/s)
gusting to 41 MPH (36 knots; 18.5 m/s)
Visibility: 6 or more miles (10+ km)
Ceiling: 1200 feet AGL
Clouds: few clouds at 200 feet AGL
broken clouds at 1200 feet AGL
overcast cloud deck at 2100 feet AGL
Weather: no significant weather observed at this time

METAR text: ENAN 141850Z 25024G40KT 9999 BKN012 OVC015 05/02 Q0981
Conditions at: ENAN (ANDOYA/ANDENES(A, NO) observed 1850 UTC 14 February 2019
Temperature: 5.0°C (41°F)
Dewpoint: 2.0°C (36°F) [RH = 81%]
Pressure (altimeter): 28.97 inches Hg (981.0 mb)
Winds: from the WSW (250 degrees) at 28 MPH (24 knots; 12.3 m/s)
gusting to 46 MPH (40 knots; 20.6 m/s)
Visibility: 6 or more miles (10+ km)
Ceiling: 1200 feet AGL
Clouds: broken clouds at 1200 feet AGL
overcast cloud deck at 1500 feet AGL
Weather: no significant weather observed at this time

METAR text: ENAN 141820Z 26027G38KT 9999 OVC015 05/02 Q0981
Conditions at: ENAN (ANDOYA/ANDENES(A, NO) observed 1820 UTC 14 February 2019
Temperature: 5.0°C (41°F)
Dewpoint: 2.0°C (36°F) [RH = 81%]
Pressure (altimeter): 28.97 inches Hg (981.0 mb)
Winds: from the W (260 degrees) at 31 MPH (27 knots; 13.9 m/s)
gusting to 44 MPH (38 knots; 19.5 m/s)
Visibility: 6 or more miles (10+ km)
Ceiling: 1500 feet AGL
Clouds: overcast cloud deck at 1500 feet AGL
Weather: no significant weather observed at this time

METAR text: ENAN 141750Z 26024KT 9999 OVC016 05/02 Q0980
Conditions at: ENAN (ANDOYA/ANDENES(A, NO) observed 1750 UTC 14 February 2019
Temperature: 5.0°C (41°F)
Dewpoint: 2.0°C (36°F) [RH = 81%]
Pressure (altimeter): 28.94 inches Hg (980.0 mb)
Winds: from the W (260 degrees) at 28 MPH (24 knots; 12.3 m/s)
Visibility: 6 or more miles (10+ km)
Ceiling: 1600 feet AGL
Clouds: overcast cloud deck at 1600 feet AGL
Weather: no significant weather observed at this time

Forecast for: ENAN (ANDOYA/ANDENES(A, NO)
Text: TAF ENAN 1600/1624 14020KT 9999 FEW002 BKN015
Forecast period: 0000 UTC 16 February 2019 to 0000 UTC 17 February 2019
Forecast type: FROM: standard forecast or significant change
Winds: from the SE (140 degrees) at 23 MPH (20 knots; 10.3 m/s)
Visibility: 6 or more miles 10+ km)
Ceiling: 1500 feet AGL
Clouds: few clouds at 200 feet AGL
broken clouds at 1500 feet AGL
Weather: no significant weather forecast for this period
Text: TEMPO 1600/1602 1000 SN VV002
Forecast period: 0000 to 0200 UTC 16 February 2019
Forecast type: TEMPORARY: The following changes expected for less than half the time period
Visibility: 0.62 miles (1.00 km)
Ceiling: indefinite ceiling with vertical visibility of 200 feet AGL
Clouds: obscured sky
Weather: SN  (moderate snow)
Text: BECMG 1600/1603 20025G35KT
Forecast period: 0000 to 0900 UTC 16 February 2019
Forecast type: BECOMING: Conditions expected to become as follows by 0300 UTC 16 February 2019
Winds: from the SSW (200 degrees) at 29 MPH (25 knots; 12.9 m/s)
gusting to 40 MPH (35 knots; 18.0 m/s)
Visibility: 6 or more miles 10+ km)
Ceiling: 1500 feet AGL
Clouds: few clouds at 200 feet AGL
broken clouds at 1500 feet AGL
Weather: no significant weather forecast for this period
Text: TEMPO 1602/1612 2500 RASN VV008
Forecast period: 0200 to 1200 UTC 16 February 2019
Forecast type: TEMPORARY: The following changes expected for less than half the time period
Visibility: 1.55 miles (2.49 km)
Ceiling: indefinite ceiling with vertical visibility of 800 feet AGL
Clouds: obscured sky
Weather: RA SN  (moderate rain, moderate snow)
Text: TEMPO 1603/1609 23040G55KT
Forecast period: 0300 to 0900 UTC 16 February 2019
Forecast type: TEMPORARY: The following changes expected for less than half the time period
Winds: from the SW (230 degrees) at 46 MPH (40 knots; 20.6 m/s)
gusting to 63 MPH (55 knots; 28.3 m/s)
Visibility: missing
Ceiling: unknown
Clouds: missing
Weather: no significant weather forecast for this period
Text: TEMPO 1612/1621 4000 SHRASN BKN008 SCT014CB
Forecast period: 1200 to 2100 UTC 16 February 2019
Forecast type: TEMPORARY: The following changes expected for less than half the time period
Visibility: 2.49 miles (4.01 km)
Ceiling: 800 feet AGL
Clouds: broken clouds at 800 feet AGL
scattered clouds at 1400 feet AGL
Weather: SHRA SHSN  (rain showers, snow showers)
Text: BECMG 1609/1612 32030KT
Forecast period: 0900 UTC 16 February 2019 to 0000 UTC 17 February 2019
Forecast type: BECOMING: Conditions expected to become as follows by 1200 UTC 16 February 2019
Winds: from the NW (320 degrees) at 34 MPH (30 knots; 15.4 m/s)
Visibility: 6 or more miles 10+ km)
Ceiling: 1500 feet AGL
Clouds: few clouds at 200 feet AGL
broken clouds at 1500 feet AGL
Weather: no significant weather forecast for this period
Text: TEMPO 1612/1621 34035G50KT
Forecast period: 1200 to 2100 UTC 16 February 2019
Forecast type: TEMPORARY: The following changes expected for less than half the time period
Winds: from the NNW (340 degrees) at 40 MPH (35 knots; 18.0 m/s)
gusting to 57 MPH (50 knots; 25.7 m/s)
Visibility: missing
Ceiling: unknown
Clouds: missing
Weather: no significant weather forecast for this period